Time;durP1;ratioP1;P1;durP2;ratioP2;P2;SDS_P1;SDS_P2;PMS_P1;PMS_P2;Temp;Humidity;BMP_temperature;BMP_pressure;BME280_temperature;BME280_humidity;BME280_pressure;Samples;Min_cycle;Max_cycle;Signal;HPM_P1;HPM_P2
2023/02/07 00:00:48;;;;;;;27.77;15.30;;;;;;;;;;5075258;28;20196;-66
2023/02/07 00:03:15;;;;;;;22.55;15.40;;;;;;;;;;5074864;28;20310;-66
2023/02/07 00:05:43;;;;;;;27.20;15.13;;;;;;;;;;5075224;28;20238;-66
2023/02/07 00:08:10;;;;;;;23.55;15.25;;;;;;;;;;5074784;28;20200;-66
2023/02/07 00:10:37;;;;;;;24.58;15.13;;;;;;;;;;5074919;28;20192;-66
2023/02/07 00:13:06;;;;;;;23.63;15.57;;;;;;;;;;5074696;28;20201;-66
2023/02/07 00:15:33;;;;;;;19.55;14.70;;;;;;;;;;5074915;28;20328;-66
2023/02/07 00:18:00;;;;;;;28.95;15.35;;;;;;;;;;5074610;28;20199;-66
2023/02/07 00:20:27;;;;;;;22.58;15.15;;;;;;;;;;5075156;28;20223;-66
2023/02/07 00:22:55;;;;;;;27.52;16.52;;;;;;;;;;5075342;28;20301;-66
2023/02/07 00:25:22;;;;;;;24.25;15.07;;;;;;;;;;5074838;28;20245;-66
2023/02/07 00:27:49;;;;;;;25.92;14.90;;;;;;;;;;5074525;28;20195;-66
2023/02/07 00:30:18;;;;;;;24.35;14.45;;;;;;;;;;5074232;28;20647;-66
2023/02/07 00:32:45;;;;;;;23.92;15.35;;;;;;;;;;5074679;28;20198;-66
2023/02/07 00:35:12;;;;;;;23.45;14.85;;;;;;;;;;5074203;28;20234;-66
2023/02/07 00:37:39;;;;;;;25.33;15.05;;;;;;;;;;5074372;28;20223;-65
2023/02/07 00:40:07;;;;;;;22.25;14.55;;;;;;;;;;5074080;28;20201;-66
2023/02/07 00:42:34;;;;;;;27.65;15.43;;;;;;;;;;5074337;28;20221;-66
2023/02/07 00:45:01;;;;;;;20.35;14.75;;;;;;;;;;5074669;28;20195;-66
2023/02/07 00:47:30;;;;;;;25.95;14.50;;;;;;;;;;5074367;28;20195;-66
2023/02/07 00:49:57;;;;;;;21.02;13.98;;;;;;;;;;5074207;28;20194;-65
2023/02/07 00:52:24;;;;;;;21.52;13.70;;;;;;;;;;5074334;28;20678;-66
2023/02/07 00:54:52;;;;;;;25.58;14.68;;;;;;;;;;5074103;28;20240;-66
2023/02/07 00:57:19;;;;;;;19.33;12.93;;;;;;;;;;5074243;28;20226;-66
2023/02/07 00:59:46;;;;;;;19.20;13.77;;;;;;;;;;5073689;28;20285;-66
2023/02/07 01:02:13;;;;;;;21.60;13.82;;;;;;;;;;5074026;28;20271;-66
2023/02/07 01:04:42;;;;;;;19.23;13.02;;;;;;;;;;5073696;28;20194;-66
2023/02/07 01:07:09;;;;;;;20.70;14.23;;;;;;;;;;5073709;28;20285;-66
2023/02/07 01:09:36;;;;;;;28.08;13.90;;;;;;;;;;5073929;28;20285;-66
2023/02/07 01:12:04;;;;;;;23.98;14.70;;;;;;;;;;5073563;28;20198;-66
2023/02/07 01:14:31;;;;;;;21.75;13.10;;;;;;;;;;5073618;28;20276;-66
2023/02/07 01:16:58;;;;;;;19.60;13.98;;;;;;;;;;5073891;28;20349;-66
2023/02/07 01:19:25;;;;;;;24.70;14.98;;;;;;;;;;5073794;28;20190;-66
2023/02/07 01:21:54;;;;;;;24.35;14.65;;;;;;;;;;5073656;28;20198;-66
2023/02/07 01:24:21;;;;;;;22.83;15.05;;;;;;;;;;5073767;28;20366;-66
2023/02/07 01:26:48;;;;;;;23.63;14.88;;;;;;;;;;5073006;28;20228;-66
2023/02/07 01:29:16;;;;;;;21.45;13.82;;;;;;;;;;5073724;28;20301;-66
2023/02/07 01:31:43;;;;;;;20.15;13.90;;;;;;;;;;5073262;28;20204;-66
2023/02/07 01:34:12;;;;;;;24.95;14.68;;;;;;;;;;5073666;28;20202;-66
2023/02/07 01:36:39;;;;;;;23.70;13.30;;;;;;;;;;5073588;28;20221;-66
2023/02/07 01:39:07;;;;;;;24.70;14.45;;;;;;;;;;5073343;28;20190;-66
2023/02/07 01:41:35;;;;;;;21.17;14.52;;;;;;;;;;5073436;28;20217;-66
2023/02/07 01:44:03;;;;;;;25.58;14.73;;;;;;;;;;5073419;28;20713;-66
2023/02/07 01:46:31;;;;;;;16.98;13.30;;;;;;;;;;5073361;28;20242;-66
2023/02/07 01:49:00;;;;;;;29.17;15.13;;;;;;;;;;5073435;28;20550;-66
2023/02/07 01:51:27;;;;;;;23.17;14.10;;;;;;;;;;5073068;28;20198;-66
2023/02/07 01:53:55;;;;;;;19.98;13.75;;;;;;;;;;5073450;28;20195;-66
2023/02/07 01:56:24;;;;;;;26.13;15.30;;;;;;;;;;5072989;28;20296;-66
2023/02/07 01:58:51;;;;;;;23.35;14.27;;;;;;;;;;5073054;28;20641;-67
2023/02/07 02:01:21;;;;;;;24.27;13.70;;;;;;;;;;5073267;28;20303;-66
2023/02/07 02:03:49;;;;;;;20.92;13.18;;;;;;;;;;5073378;28;20214;-67
2023/02/07 02:06:17;;;;;;;23.98;15.20;;;;;;;;;;5072958;28;20198;-66
2023/02/07 02:08:44;;;;;;;26.95;13.70;;;;;;;;;;5073361;28;20563;-66
2023/02/07 02:11:19;;;;;;;28.45;14.48;;;;;;;;;;5073152;28;20190;-66
2023/02/07 02:13:50;;;;;;;21.52;14.35;;;;;;;;;;5073017;28;20192;-66
2023/02/07 02:16:20;;;;;;;29.75;13.80;;;;;;;;;;5073128;28;20186;-67
2023/02/07 02:18:53;;;;;;;23.88;14.60;;;;;;;;;;5073210;28;20228;-67
2023/02/07 02:21:41;;;;;;;25.95;13.85;;;;;;;;;;5073346;28;20541;-66
2023/02/07 02:24:20;;;;;;;18.23;13.32;;;;;;;;;;5072852;28;20293;-66
2023/02/07 02:26:56;;;;;;;23.73;13.40;;;;;;;;;;5073546;28;20236;-66
2023/02/07 02:29:38;;;;;;;20.60;14.05;;;;;;;;;;5073191;28;20545;-67
2023/02/07 02:32:35;;;;;;;20.23;15.57;;;;;;;;;;5073420;28;20188;-66
2023/02/07 02:35:06;;;;;;;18.20;14.40;;;;;;;;;;5072789;28;20643;-66
2023/02/07 02:37:36;;;;;;;25.23;14.77;;;;;;;;;;5072664;28;20277;-66
2023/02/07 02:40:06;;;;;;;26.95;15.68;;;;;;;;;;5073144;28;20269;-67
2023/02/07 02:42:35;;;;;;;24.10;16.20;;;;;;;;;;5072981;28;20297;-67
2023/02/07 02:45:05;;;;;;;20.83;14.65;;;;;;;;;;5072817;28;20661;-67
2023/02/07 02:47:33;;;;;;;20.95;13.63;;;;;;;;;;5072926;28;20313;-67
2023/02/07 02:50:00;;;;;;;21.45;14.35;;;;;;;;;;5072909;28;20222;-66
2023/02/07 02:52:29;;;;;;;19.83;13.55;;;;;;;;;;5072499;28;20647;-66
2023/02/07 02:54:56;;;;;;;30.63;14.68;;;;;;;;;;5073502;28;20233;-67
2023/02/07 02:57:31;;;;;;;21.92;15.02;;;;;;;;;;5072712;28;20198;-67
2023/02/07 03:00:10;;;;;;;22.30;14.93;;;;;;;;;;5073349;28;20269;-67
2023/02/07 03:02:42;;;;;;;21.30;14.45;;;;;;;;;;5076074;28;20276;-66
2023/02/07 03:05:20;;;;;;;20.33;13.50;;;;;;;;;;5076114;28;20282;-67
2023/02/07 03:07:55;;;;;;;26.02;15.77;;;;;;;;;;5076505;28;20546;-66
2023/02/07 03:10:26;;;;;;;21.40;16.42;;;;;;;;;;5075999;28;20281;-66
2023/02/07 03:12:57;;;;;;;27.42;14.55;;;;;;;;;;5076392;28;20221;-66
2023/02/07 03:15:27;;;;;;;21.63;16.02;;;;;;;;;;5076672;28;20269;-66
2023/02/07 03:17:57;;;;;;;22.90;15.05;;;;;;;;;;5076428;28;20598;-66
2023/02/07 03:20:27;;;;;;;20.38;15.95;;;;;;;;;;5076267;28;20225;-66
2023/02/07 03:22:57;;;;;;;27.25;15.13;;;;;;;;;;5075853;28;20301;-66
2023/02/07 03:25:25;;;;;;;21.65;15.77;;;;;;;;;;5075949;28;20317;-66
2023/02/07 03:27:54;;;;;;;22.52;16.75;;;;;;;;;;5075848;28;20205;-66
2023/02/07 03:30:22;;;;;;;20.23;14.38;;;;;;;;;;5075933;28;20289;-66
2023/02/07 03:32:51;;;;;;;28.52;15.48;;;;;;;;;;5075741;28;20282;-66
2023/02/07 03:35:21;;;;;;;22.75;15.32;;;;;;;;;;5075808;28;20222;-66
2023/02/07 03:37:50;;;;;;;25.60;13.40;;;;;;;;;;5075631;28;20201;-66
2023/02/07 03:40:19;;;;;;;23.17;15.15;;;;;;;;;;5075686;28;20194;-66
2023/02/07 03:42:47;;;;;;;20.13;14.38;;;;;;;;;;5075769;28;20220;-66
2023/02/07 03:45:17;;;;;;;25.42;16.02;;;;;;;;;;5075540;28;20550;-66
2023/02/07 03:47:44;;;;;;;23.30;15.82;;;;;;;;;;5075402;28;20190;-66
2023/02/07 03:50:12;;;;;;;21.38;15.05;;;;;;;;;;5075235;28;20311;-66
2023/02/07 03:52:39;;;;;;;21.30;14.85;;;;;;;;;;5075356;28;20194;-66
2023/02/07 03:55:07;;;;;;;24.83;15.38;;;;;;;;;;5075225;28;20233;-66
2023/02/07 03:57:35;;;;;;;23.13;14.35;;;;;;;;;;5074886;28;20282;-66
2023/02/07 04:00:03;;;;;;;23.00;15.52;;;;;;;;;;5075354;28;20232;-66
2023/02/07 04:02:30;;;;;;;21.52;15.80;;;;;;;;;;5074824;28;20190;-66
2023/02/07 04:04:57;;;;;;;21.38;14.85;;;;;;;;;;5074868;28;20273;-66
2023/02/07 04:07:24;;;;;;;28.98;17.20;;;;;;;;;;5075569;28;20289;-66
2023/02/07 04:09:51;;;;;;;25.85;15.82;;;;;;;;;;5075077;28;20194;-66
2023/02/07 04:12:19;;;;;;;23.60;15.60;;;;;;;;;;5073935;28;20288;-66
2023/02/07 04:14:47;;;;;;;23.77;15.73;;;;;;;;;;5074841;28;20603;-66
2023/02/07 04:17:14;;;;;;;30.35;16.40;;;;;;;;;;5074572;28;20196;-66
2023/02/07 04:19:42;;;;;;;24.92;16.67;;;;;;;;;;5075168;28;20285;-66
2023/02/07 04:22:10;;;;;;;23.95;15.35;;;;;;;;;;5074488;28;20281;-66
2023/02/07 04:24:37;;;;;;;24.30;16.75;;;;;;;;;;5074210;28;20218;-67
2023/02/07 04:27:04;;;;;;;25.83;14.95;;;;;;;;;;5074655;28;20703;-66
2023/02/07 04:29:31;;;;;;;23.88;16.30;;;;;;;;;;5074673;28;20292;-66
2023/02/07 04:32:01;;;;;;;26.50;15.77;;;;;;;;;;5074709;28;20201;-65
2023/02/07 04:34:28;;;;;;;27.80;16.30;;;;;;;;;;5075100;28;20205;-66
2023/02/07 04:36:56;;;;;;;21.40;14.70;;;;;;;;;;5074789;28;20194;-66
2023/02/07 04:39:23;;;;;;;21.83;14.88;;;;;;;;;;5074492;28;20543;-65
2023/02/07 04:41:51;;;;;;;20.10;14.77;;;;;;;;;;5074168;28;20194;-66
2023/02/07 04:44:18;;;;;;;24.95;15.27;;;;;;;;;;5074256;28;20249;-65
2023/02/07 04:46:45;;;;;;;20.83;14.88;;;;;;;;;;5074330;28;20237;-65
2023/02/07 04:49:14;;;;;;;28.35;17.90;;;;;;;;;;5074029;28;20281;-65
2023/02/07 04:51:41;;;;;;;21.13;14.82;;;;;;;;;;5063794;28;20281;-67
2023/02/07 04:54:08;;;;;;;23.50;15.00;;;;;;;;;;5050702;28;20656;-65
2023/02/07 04:56:35;;;;;;;25.08;15.60;;;;;;;;;;5053661;28;20244;-66
2023/02/07 04:59:02;;;;;;;23.00;13.93;;;;;;;;;;5053622;28;20316;-66
2023/02/07 05:01:30;;;;;;;25.63;15.82;;;;;;;;;;5053760;28;20241;-66
2023/02/07 05:03:57;;;;;;;25.13;16.38;;;;;;;;;;5053955;28;20216;-66
2023/02/07 05:06:25;;;;;;;28.48;17.52;;;;;;;;;;5052214;28;20198;-67
2023/02/07 05:08:53;;;;;;;26.65;16.75;;;;;;;;;;5053324;28;20199;-66
2023/02/07 05:11:20;;;;;;;24.83;14.75;;;;;;;;;;5053509;28;20206;-66
2023/02/07 05:13:47;;;;;;;23.80;15.90;;;;;;;;;;5053150;28;20203;-66
2023/02/07 05:16:14;;;;;;;25.30;15.80;;;;;;;;;;5053223;28;20239;-68
2023/02/07 05:18:41;;;;;;;21.73;15.30;;;;;;;;;;5053277;28;20198;-66
2023/02/07 05:21:10;;;;;;;24.20;17.73;;;;;;;;;;5053217;28;20229;-66
2023/02/07 05:23:38;;;;;;;25.60;17.40;;;;;;;;;;5053009;28;20250;-66
2023/02/07 05:26:06;;;;;;;28.08;16.75;;;;;;;;;;5053642;28;20241;-66
2023/02/07 05:28:33;;;;;;;22.20;15.82;;;;;;;;;;5053223;28;20234;-66
2023/02/07 05:31:00;;;;;;;32.00;16.52;;;;;;;;;;5053123;28;20282;-67
2023/02/07 05:33:27;;;;;;;25.98;18.17;;;;;;;;;;5053677;28;20209;-67
2023/02/07 05:35:54;;;;;;;26.35;17.17;;;;;;;;;;5053497;28;20222;-66
2023/02/07 05:38:21;;;;;;;24.58;16.60;;;;;;;;;;5052958;28;20239;-67
2023/02/07 05:40:50;;;;;;;27.10;16.95;;;;;;;;;;5052712;28;20285;-67
2023/02/07 05:43:17;;;;;;;28.60;15.68;;;;;;;;;;5053256;28;20192;-67
2023/02/07 05:45:45;;;;;;;20.85;15.27;;;;;;;;;;5053280;28;20645;-67
2023/02/07 05:48:12;;;;;;;28.27;17.73;;;;;;;;;;5052899;28;20671;-69
2023/02/07 05:50:40;;;;;;;25.13;15.10;;;;;;;;;;5052850;28;20289;-67
2023/02/07 05:53:08;;;;;;;25.45;16.52;;;;;;;;;;5053337;28;20592;-67
2023/02/07 05:55:35;;;;;;;26.52;15.70;;;;;;;;;;5052882;28;20286;-67
2023/02/07 05:58:04;;;;;;;31.70;16.73;;;;;;;;;;5053433;28;20302;-67
2023/02/07 06:00:31;;;;;;;22.05;15.98;;;;;;;;;;5053016;28;20297;-67
2023/02/07 06:02:58;;;;;;;27.42;15.85;;;;;;;;;;5052806;28;20196;-67
2023/02/07 06:05:30;;;;;;;27.00;15.13;;;;;;;;;;5052839;28;20578;-67
2023/02/07 06:07:57;;;;;;;28.30;18.42;;;;;;;;;;5052832;28;20225;-67
2023/02/07 06:10:25;;;;;;;28.05;16.08;;;;;;;;;;5052821;28;20559;-67
2023/02/07 06:12:52;;;;;;;24.20;16.77;;;;;;;;;;5052971;28;20195;-67
2023/02/07 06:15:20;;;;;;;22.95;16.85;;;;;;;;;;5052824;28;20674;-67
2023/02/07 06:17:48;;;;;;;27.38;16.25;;;;;;;;;;5053058;28;20727;-67
2023/02/07 06:20:15;;;;;;;26.40;15.70;;;;;;;;;;5052564;28;20231;-68
2023/02/07 06:22:42;;;;;;;31.35;17.45;;;;;;;;;;5052916;28;20619;-67
2023/02/07 06:25:10;;;;;;;28.60;17.60;;;;;;;;;;5052122;28;20239;-67
2023/02/07 06:27:38;;;;;;;31.58;19.42;;;;;;;;;;5053269;28;20559;-66
2023/02/07 06:30:05;;;;;;;25.95;18.98;;;;;;;;;;5052779;28;20285;-66
2023/02/07 06:32:34;;;;;;;28.00;18.73;;;;;;;;;;5052494;28;20289;-66
2023/02/07 06:35:01;;;;;;;23.67;15.95;;;;;;;;;;5052857;28;20287;-66
2023/02/07 06:37:29;;;;;;;22.98;16.50;;;;;;;;;;5055655;28;20195;-66
2023/02/07 06:39:56;;;;;;;27.30;18.42;;;;;;;;;;5056823;28;20285;-67
2023/02/07 06:42:23;;;;;;;26.13;17.77;;;;;;;;;;5056213;28;20201;-66
2023/02/07 06:44:50;;;;;;;30.27;19.67;;;;;;;;;;5056640;28;20215;-68
2023/02/07 06:47:19;;;;;;;27.05;17.25;;;;;;;;;;5056756;28;20198;-68
2023/02/07 06:49:48;;;;;;;26.88;16.17;;;;;;;;;;5056313;28;20194;-68
2023/02/07 06:52:15;;;;;;;30.30;17.45;;;;;;;;;;5056131;28;20272;-69
2023/02/07 06:54:42;;;;;;;23.85;16.90;;;;;;;;;;5056255;28;20664;-68
2023/02/07 06:57:10;;;;;;;23.17;16.15;;;;;;;;;;5056300;28;20198;-68
2023/02/07 06:59:37;;;;;;;27.42;16.98;;;;;;;;;;5056326;28;20222;-68
2023/02/07 07:02:04;;;;;;;29.05;17.98;;;;;;;;;;5056011;28;20199;-67
2023/02/07 07:04:33;;;;;;;28.80;17.70;;;;;;;;;;5055515;28;20215;-71
2023/02/07 07:07:01;;;;;;;23.67;15.23;;;;;;;;;;5056191;28;20282;-67
2023/02/07 07:09:28;;;;;;;24.75;16.52;;;;;;;;;;5056016;28;20199;-67
2023/02/07 07:11:55;;;;;;;19.52;14.77;;;;;;;;;;5055659;28;20283;-68
2023/02/07 07:14:23;;;;;;;23.90;15.48;;;;;;;;;;5056134;28;20290;-67
2023/02/07 07:16:50;;;;;;;24.42;17.80;;;;;;;;;;5055981;28;20190;-67
2023/02/07 07:19:17;;;;;;;24.30;16.38;;;;;;;;;;5055750;28;20285;-67
2023/02/07 07:21:44;;;;;;;25.98;16.85;;;;;;;;;;5055911;28;20222;-68
2023/02/07 07:24:13;;;;;;;21.92;14.85;;;;;;;;;;5055543;28;20221;-67
2023/02/07 07:26:40;;;;;;;26.83;16.80;;;;;;;;;;5055725;28;20229;-68
2023/02/07 07:29:07;;;;;;;27.83;16.70;;;;;;;;;;5055526;28;20193;-68
2023/02/07 07:31:35;;;;;;;27.73;15.55;;;;;;;;;;5055861;28;20357;-68
2023/02/07 07:34:02;;;;;;;22.27;15.15;;;;;;;;;;5055763;28;20630;-68
2023/02/07 07:36:29;;;;;;;25.88;15.35;;;;;;;;;;5055602;28;20238;-68
2023/02/07 07:38:56;;;;;;;27.75;16.42;;;;;;;;;;5055292;28;20204;-68
2023/02/07 07:41:25;;;;;;;23.30;17.60;;;;;;;;;;5055221;28;20231;-68
2023/02/07 07:43:52;;;;;;;24.98;16.05;;;;;;;;;;5055213;28;20286;-68
2023/02/07 07:46:19;;;;;;;21.13;15.40;;;;;;;;;;5055271;28;20227;-68
2023/02/07 07:48:47;;;;;;;24.38;17.23;;;;;;;;;;5055306;28;20195;-67
2023/02/07 07:51:14;;;;;;;23.95;16.48;;;;;;;;;;5055456;28;20230;-68
2023/02/07 07:53:41;;;;;;;27.77;17.70;;;;;;;;;;5055142;28;20205;-68
2023/02/07 07:56:08;;;;;;;26.70;16.67;;;;;;;;;;5054862;28;20290;-68
2023/02/07 07:58:37;;;;;;;23.73;16.48;;;;;;;;;;5055706;28;20195;-68
2023/02/07 08:01:04;;;;;;;25.90;17.95;;;;;;;;;;5055116;28;20206;-68
2023/02/07 08:03:32;;;;;;;22.65;16.55;;;;;;;;;;5054810;28;20664;-67
2023/02/07 08:05:59;;;;;;;27.00;16.40;;;;;;;;;;5055177;28;20255;-68
2023/02/07 08:08:26;;;;;;;21.25;15.23;;;;;;;;;;5054736;28;20195;-68
2023/02/07 08:10:53;;;;;;;25.90;16.65;;;;;;;;;;5055369;28;20282;-66
2023/02/07 08:13:21;;;;;;;18.73;14.98;;;;;;;;;;5055007;28;20201;-67
2023/02/07 08:15:49;;;;;;;21.95;15.93;;;;;;;;;;5055137;28;20199;-67
2023/02/07 08:18:16;;;;;;;22.60;16.27;;;;;;;;;;5055164;28;20302;-67
2023/02/07 08:20:44;;;;;;;19.35;15.07;;;;;;;;;;5054304;28;20197;-68
2023/02/07 08:23:11;;;;;;;19.50;16.33;;;;;;;;;;5054362;28;20195;-67
2023/02/07 08:25:38;;;;;;;20.10;14.05;;;;;;;;;;5054170;28;20235;-68
2023/02/07 08:28:05;;;;;;;18.48;14.20;;;;;;;;;;5054688;28;20229;-67
2023/02/07 08:30:33;;;;;;;24.90;15.40;;;;;;;;;;5054564;28;20620;-67
2023/02/07 08:33:02;;;;;;;16.17;13.52;;;;;;;;;;5054154;28;20195;-67
2023/02/07 08:35:29;;;;;;;20.05;12.38;;;;;;;;;;5054931;28;20195;-67
2023/02/07 08:37:57;;;;;;;19.92;14.40;;;;;;;;;;5053936;28;20249;-67
2023/02/07 08:40:25;;;;;;;19.27;14.00;;;;;;;;;;5054005;28;20297;-66
2023/02/07 08:42:52;;;;;;;18.77;13.52;;;;;;;;;;5053805;28;20286;-67
2023/02/07 08:45:19;;;;;;;16.13;13.10;;;;;;;;;;5053766;28;20219;-67
2023/02/07 08:47:47;;;;;;;19.85;14.73;;;;;;;;;;5053726;28;20197;-67
2023/02/07 08:50:16;;;;;;;17.30;14.88;;;;;;;;;;5054219;28;20211;-67
2023/02/07 08:52:43;;;;;;;21.40;14.70;;;;;;;;;;5054121;28;20278;-67
2023/02/07 08:55:11;;;;;;;17.65;13.40;;;;;;;;;;5053875;28;20202;-67
2023/02/07 08:57:38;;;;;;;20.50;13.45;;;;;;;;;;5053612;28;20764;-67
2023/02/07 09:00:06;;;;;;;25.98;12.30;;;;;;;;;;5053175;28;20271;-67
2023/02/07 09:02:34;;;;;;;17.30;13.60;;;;;;;;;;5053840;28;20203;-67
2023/02/07 09:05:01;;;;;;;15.63;12.80;;;;;;;;;;5053834;28;20314;-67
2023/02/07 09:07:30;;;;;;;17.35;13.10;;;;;;;;;;5053536;28;20670;-67
2023/02/07 09:09:57;;;;;;;20.38;12.45;;;;;;;;;;5053484;28;20201;-67
2023/02/07 09:12:25;;;;;;;17.17;12.30;;;;;;;;;;5053742;28;20262;-67
2023/02/07 09:14:52;;;;;;;17.85;11.93;;;;;;;;;;5053734;28;20209;-67
2023/02/07 09:17:19;;;;;;;18.92;12.68;;;;;;;;;;5053382;28;20227;-67
2023/02/07 09:19:46;;;;;;;17.73;12.10;;;;;;;;;;5053448;28;20232;-67
2023/02/07 09:22:13;;;;;;;21.75;12.90;;;;;;;;;;5053300;28;20197;-67
2023/02/07 09:24:42;;;;;;;18.00;14.50;;;;;;;;;;5052896;28;20286;-67
2023/02/07 09:27:09;;;;;;;18.40;12.20;;;;;;;;;;5053799;28;20654;-67
2023/02/07 09:29:36;;;;;;;16.13;12.38;;;;;;;;;;5053639;28;20279;-67
2023/02/07 09:32:04;;;;;;;17.23;13.15;;;;;;;;;;5053187;28;20232;-67
2023/02/07 09:34:32;;;;;;;16.05;12.32;;;;;;;;;;5053963;28;20575;-67
2023/02/07 09:37:00;;;;;;;18.42;13.88;;;;;;;;;;5053097;28;20199;-67
2023/02/07 09:39:27;;;;;;;15.95;12.40;;;;;;;;;;5053529;28;20337;-66
2023/02/07 09:42:00;;;;;;;19.83;12.90;;;;;;;;;;5053723;28;20278;-66
2023/02/07 09:44:29;;;;;;;17.08;11.65;;;;;;;;;;5053314;28;20611;-67
2023/02/07 09:47:00;;;;;;;14.65;11.90;;;;;;;;;;5053289;28;20317;-66
2023/02/07 09:49:29;;;;;;;15.70;12.63;;;;;;;;;;5053124;28;20712;-66
2023/02/07 09:51:58;;;;;;;26.73;17.60;;;;;;;;;;5053700;28;20279;-67
2023/02/07 09:54:28;;;;;;;17.52;13.80;;;;;;;;;;5053505;28;20192;-67
2023/02/07 09:56:58;;;;;;;16.55;12.45;;;;;;;;;;5053399;28;20235;-67
2023/02/07 09:59:27;;;;;;;17.02;12.60;;;;;;;;;;5053604;28;20616;-66
2023/02/07 10:01:58;;;;;;;16.83;11.73;;;;;;;;;;5053223;28;20202;-70
2023/02/07 10:04:30;;;;;;;16.40;12.48;;;;;;;;;;5053564;28;20270;-66
2023/02/07 10:06:58;;;;;;;17.27;11.65;;;;;;;;;;5052032;28;20227;-66
2023/02/07 10:09:27;;;;;;;16.25;12.43;;;;;;;;;;5052807;28;20202;-66
2023/02/07 10:11:56;;;;;;;15.40;12.85;;;;;;;;;;5057531;28;20283;-66
2023/02/07 10:14:32;;;;;;;15.52;11.40;;;;;;;;;;5057161;28;20228;-66
2023/02/07 10:17:14;;;;;;;14.00;11.10;;;;;;;;;;5057648;28;20198;-66
2023/02/07 10:19:45;;;;;;;18.60;12.48;;;;;;;;;;5057504;28;20196;-66
2023/02/07 10:22:20;;;;;;;17.30;12.68;;;;;;;;;;5057147;28;20632;-69
2023/02/07 10:24:55;;;;;;;20.42;13.80;;;;;;;;;;5056683;28;20184;-67
2023/02/07 10:27:29;;;;;;;19.10;12.05;;;;;;;;;;5057043;28;20227;-67
2023/02/07 10:30:01;;;;;;;12.93;10.30;;;;;;;;;;5057344;28;20267;-67
2023/02/07 10:32:29;;;;;;;14.52;11.00;;;;;;;;;;5057222;28;20216;-67
2023/02/07 10:35:00;;;;;;;15.98;10.70;;;;;;;;;;5056554;28;20193;-67
2023/02/07 10:37:29;;;;;;;15.70;10.07;;;;;;;;;;5056448;28;20239;-67
2023/02/07 10:40:01;;;;;;;15.73;11.48;;;;;;;;;;5056419;28;20192;-67
2023/02/07 10:42:31;;;;;;;12.77;9.90;;;;;;;;;;5056512;28;20261;-67
2023/02/07 10:44:59;;;;;;;14.15;10.40;;;;;;;;;;5057130;28;20192;-67
2023/02/07 10:47:26;;;;;;;16.00;10.57;;;;;;;;;;5056043;28;20235;-67
2023/02/07 10:49:56;;;;;;;16.33;10.13;;;;;;;;;;5056457;28;20324;-67
2023/02/07 10:52:35;;;;;;;13.52;11.23;;;;;;;;;;5056593;28;20201;-67
2023/02/07 10:55:03;;;;;;;14.82;9.93;;;;;;;;;;5056592;28;20206;-67
2023/02/07 10:57:30;;;;;;;11.95;9.45;;;;;;;;;;5056130;28;20651;-67
2023/02/07 11:00:00;;;;;;;10.60;8.40;;;;;;;;;;5056276;28;20285;-67
2023/02/07 11:02:38;;;;;;;13.57;9.27;;;;;;;;;;5056556;28;20204;-67
2023/02/07 11:05:07;;;;;;;15.43;13.20;;;;;;;;;;5056311;28;20602;-67
2023/02/07 11:07:34;;;;;;;13.68;11.52;;;;;;;;;;5056011;28;20287;-67
2023/02/07 11:10:14;;;;;;;13.95;10.20;;;;;;;;;;5055795;28;20230;-67
2023/02/07 11:12:45;;;;;;;15.75;10.30;;;;;;;;;;5055865;28;20191;-68
2023/02/07 11:15:17;;;;;;;12.05;10.45;;;;;;;;;;5056010;28;20200;-68
2023/02/07 11:17:48;;;;;;;11.95;9.05;;;;;;;;;;5056010;28;20319;-68
2023/02/07 11:20:19;;;;;;;10.93;9.38;;;;;;;;;;5056080;28;20188;-68
2023/02/07 11:22:46;;;;;;;11.38;8.73;;;;;;;;;;5055382;28;20221;-68
2023/02/07 11:25:13;;;;;;;11.75;9.52;;;;;;;;;;5055579;28;20220;-67
2023/02/07 11:27:41;;;;;;;27.83;16.20;;;;;;;;;;5055863;28;20204;-66
2023/02/07 11:30:15;;;;;;;10.60;8.45;;;;;;;;;;5055500;28;20234;-68
2023/02/07 11:32:44;;;;;;;15.75;9.23;;;;;;;;;;5055820;28;20268;-67
2023/02/07 11:35:18;;;;;;;12.00;9.73;;;;;;;;;;5055545;28;20505;-68
2023/02/07 11:37:47;;;;;;;13.65;9.40;;;;;;;;;;5055954;28;20216;-68
2023/02/07 11:40:21;;;;;;;107.95;56.30;;;;;;;;;;5055147;28;20244;-67
2023/02/07 11:42:50;;;;;;;14.90;10.13;;;;;;;;;;5055767;28;20683;-67
2023/02/07 11:45:18;;;;;;;16.65;9.88;;;;;;;;;;5055444;28;20198;-67
2023/02/07 11:47:48;;;;;;;11.43;8.50;;;;;;;;;;5055539;28;20212;-67
2023/02/07 11:50:18;;;;;;;19.48;11.23;;;;;;;;;;5055595;28;20204;-65
2023/02/07 11:52:50;;;;;;;12.57;9.13;;;;;;;;;;5055068;28;20207;-66
2023/02/07 11:55:21;;;;;;;10.48;8.68;;;;;;;;;;5055479;28;20288;-67
2023/02/07 11:57:48;;;;;;;13.60;8.55;;;;;;;;;;5055617;28;20587;-66
2023/02/07 12:00:19;;;;;;;10.60;8.15;;;;;;;;;;5055268;28;20233;-67
2023/02/07 12:02:51;;;;;;;11.02;8.82;;;;;;;;;;5054993;28;20189;-67
2023/02/07 12:05:27;;;;;;;13.07;9.15;;;;;;;;;;5054862;28;20190;-66
2023/02/07 12:07:58;;;;;;;11.55;9.75;;;;;;;;;;5056146;28;20199;-67
2023/02/07 12:10:27;;;;;;;12.55;8.85;;;;;;;;;;5054961;28;20286;-67
2023/02/07 12:12:56;;;;;;;9.73;8.45;;;;;;;;;;5054739;28;20241;-67
2023/02/07 12:15:25;;;;;;;9.25;8.32;;;;;;;;;;5054494;28;20198;-67
2023/02/07 12:17:58;;;;;;;11.50;9.10;;;;;;;;;;5055116;28;20233;-67
2023/02/07 12:20:26;;;;;;;10.43;7.70;;;;;;;;;;5054412;28;20707;-67
2023/02/07 12:22:57;;;;;;;10.70;6.90;;;;;;;;;;5054822;28;20219;-67
2023/02/07 12:25:26;;;;;;;8.40;7.25;;;;;;;;;;5054487;28;20231;-67
2023/02/07 12:27:57;;;;;;;10.85;8.00;;;;;;;;;;5054474;28;20192;-67
2023/02/07 12:30:30;;;;;;;8.82;7.93;;;;;;;;;;5054899;28;20273;-68
2023/02/07 12:33:04;;;;;;;8.80;7.43;;;;;;;;;;5054571;28;20188;-67
2023/02/07 12:35:34;;;;;;;7.90;7.00;;;;;;;;;;5054305;28;20193;-67
2023/02/07 12:38:05;;;;;;;8.35;7.43;;;;;;;;;;5054716;28;20190;-66
2023/02/07 12:40:34;;;;;;;12.70;10.68;;;;;;;;;;5054499;28;20617;-66
2023/02/07 12:43:03;;;;;;;13.18;7.30;;;;;;;;;;5054405;28;20196;-66
2023/02/07 12:45:40;;;;;;;8.63;7.53;;;;;;;;;;5054517;28;20216;-66
2023/02/07 12:48:13;;;;;;;8.10;7.28;;;;;;;;;;5054365;28;20276;-66
2023/02/07 12:50:47;;;;;;;9.80;7.28;;;;;;;;;;5054248;28;20218;-66
2023/02/07 12:53:23;;;;;;;8.77;7.00;;;;;;;;;;5054531;28;20188;-67
2023/02/07 12:55:56;;;;;;;6.85;6.10;;;;;;;;;;5053706;28;20193;-66
2023/02/07 12:58:36;;;;;;;7.53;6.30;;;;;;;;;;5054159;28;20190;-66
2023/02/07 13:01:08;;;;;;;11.52;8.18;;;;;;;;;;5054025;28;20189;-66
2023/02/07 13:03:44;;;;;;;10.10;7.30;;;;;;;;;;5053736;28;20195;-66
2023/02/07 13:06:17;;;;;;;8.23;7.40;;;;;;;;;;5053588;28;20246;-66
2023/02/07 13:08:47;;;;;;;9.13;7.68;;;;;;;;;;5053469;28;20644;-66
2023/02/07 13:11:21;;;;;;;7.88;6.97;;;;;;;;;;5054049;28;20277;-66
2023/02/07 13:13:55;;;;;;;6.68;6.07;;;;;;;;;;5054385;28;20190;-66
2023/02/07 13:16:26;;;;;;;9.40;8.15;;;;;;;;;;5053919;28;20200;-66
2023/02/07 13:18:58;;;;;;;7.30;6.57;;;;;;;;;;5054089;28;20183;-66
2023/02/07 13:21:29;;;;;;;10.10;7.28;;;;;;;;;;5053867;28;20198;-66
2023/02/07 13:23:59;;;;;;;8.77;7.72;;;;;;;;;;5053604;28;20286;-66
2023/02/07 13:26:27;;;;;;;8.13;7.32;;;;;;;;;;5053318;28;20285;-66
2023/02/07 13:28:55;;;;;;;7.68;6.88;;;;;;;;;;5053807;28;20201;-66
2023/02/07 13:31:34;;;;;;;9.55;6.70;;;;;;;;;;5053211;28;20653;-66
2023/02/07 13:34:03;;;;;;;9.10;7.68;;;;;;;;;;5053313;28;20216;-66
2023/02/07 13:36:32;;;;;;;10.98;8.25;;;;;;;;;;5053559;28;20209;-66
2023/02/07 13:39:03;;;;;;;8.68;6.90;;;;;;;;;;5053643;28;20193;-66
2023/02/07 13:41:33;;;;;;;9.57;7.95;;;;;;;;;;5053692;28;20186;-66
2023/02/07 13:44:04;;;;;;;9.38;6.97;;;;;;;;;;5053362;28;20213;-66
2023/02/07 13:46:39;;;;;;;7.63;6.18;;;;;;;;;;5053077;28;20209;-66
2023/02/07 13:49:11;;;;;;;7.43;6.57;;;;;;;;;;5053106;28;20658;-66
2023/02/07 13:51:43;;;;;;;7.88;7.05;;;;;;;;;;5052893;28;20186;-67
2023/02/07 13:54:17;;;;;;;15.07;9.40;;;;;;;;;;5053107;28;20236;-71
2023/02/07 13:59:41;;;;;;;8.07;7.28;;;;;;;;;;5053235;28;20601;-69
2023/02/07 14:02:15;;;;;;;7.35;6.38;;;;;;;;;;5053369;28;20220;-68
2023/02/07 14:04:46;;;;;;;9.13;7.72;;;;;;;;;;5069876;28;20276;-68
2023/02/07 14:07:20;;;;;;;9.40;7.07;;;;;;;;;;5073162;28;20304;-67
2023/02/07 14:09:48;;;;;;;10.55;8.13;;;;;;;;;;5073619;28;20185;-68
2023/02/07 14:12:18;;;;;;;10.60;8.15;;;;;;;;;;5073052;28;20202;-68
2023/02/07 14:14:45;;;;;;;9.75;7.53;;;;;;;;;;5073696;28;20228;-68
2023/02/07 14:17:13;;;;;;;8.95;7.90;;;;;;;;;;5073020;28;20243;-68
2023/02/07 14:19:53;;;;;;;8.15;7.28;;;;;;;;;;5073106;28;20198;-68
2023/02/07 14:22:24;;;;;;;9.88;8.02;;;;;;;;;;5051141;28;20188;-68
2023/02/07 14:25:12;;;;;;;8.77;7.85;;;;;;;;;;5052746;28;20387;-68
2023/02/07 14:27:39;;;;;;;10.77;7.00;;;;;;;;;;5052716;28;20215;-68
2023/02/07 14:30:15;;;;;;;7.28;6.20;;;;;;;;;;5052526;28;20204;-68
2023/02/07 14:32:44;;;;;;;8.30;7.28;;;;;;;;;;5052526;28;20231;-71
2023/02/07 14:35:30;;;;;;;9.18;6.90;;;;;;;;;;5052535;28;20192;-67